Terminal Aerodrome Forecast
Issued by NWS

Home | Current Version | Previous Version | Text Only | Print | Product List | Glossary On
Versions: 1 2 3 4 5 6 7 8 9 10 11 12 13
000
FTUS43 KABR 062300
TAFPIR
TAF
KPIR 062336Z 0700/0724 18006KT P6SM SCT100
     FM070300 29014KT P6SM SCT200
     FM071600 30010KT P6SM SCT040=

USA.gov is the U.S. government's official web portal to all federal, state and local government web resources and services.